Cornwall Bridge, Connecticut
Current Conditions -  °F | °C
As of 3:55 PM on Tuesday 27 Jan 2015 (Local Time) from KOXC Reporting Station
Scattered Clouds Scattered Clouds  
Wind Chill:   Ceiling: Unl
Heat Index: 18°   Visibility: 10mi
Dew Point:   Wind: 12mph
Humidity: 53%   Direction: 330°NNW
Pressure: 29.59"   Gusts: 20mph
Location:  41.82°N, 73.37°W
Report Text: KOXC 272055Z COR 33010G17KT 10SM SCT055 M08/M16 A2959
Loading
Personal Weather Stations






























Interactive Weather Map New forecast layout! Learn more

10-Day Weather Forecast

Advertisements
Track Severe Weather on mobile